createdAt,value
2018-09-06T00:01:06.555Z,22.17
2018-09-06T00:03:34.673Z,21.47
2018-09-06T00:06:02.210Z,22.02
2018-09-06T00:08:29.702Z,21.05
2018-09-06T00:16:45.361Z,20.48
2018-09-06T00:19:13.855Z,20.57
2018-09-06T00:21:43.827Z,20.70
2018-09-06T00:24:11.820Z,21.20
2018-09-06T00:27:53.518Z,21.77
2018-09-06T00:33:25.219Z,21.30
2018-09-06T00:38:28.717Z,21.68
2018-09-06T00:40:56.963Z,21.40
2018-09-06T00:46:40.354Z,21.90
2018-09-06T00:49:08.009Z,21.10
2018-09-06T00:54:29.690Z,21.43
2018-09-06T00:56:58.427Z,20.97
2018-09-06T00:59:26.186Z,21.30
2018-09-06T01:02:07.421Z,21.42
2018-09-06T01:07:28.638Z,21.68
2018-09-06T01:09:56.252Z,20.50
2018-09-06T01:18:02.731Z,21.42
2018-09-06T01:21:01.662Z,21.20
2018-09-06T01:23:29.213Z,21.12
2018-09-06T01:25:56.919Z,21.45
2018-09-06T01:28:25.276Z,20.70
2018-09-06T01:30:52.834Z,21.33
2018-09-06T01:33:20.320Z,21.25
2018-09-06T01:35:53.418Z,21.30
2018-09-06T01:38:20.966Z,21.15
2018-09-06T01:41:11.578Z,22.17
2018-09-06T01:43:39.134Z,23.10
2018-09-06T01:49:14.626Z,22.32
2018-09-06T02:01:58.540Z,22.50
2018-09-06T02:04:33.688Z,22.48
2018-09-06T02:07:42.731Z,22.22
2018-09-06T02:10:26.815Z,22.62
2018-09-06T02:13:03.082Z,22.50
2018-09-06T02:18:33.795Z,23.25
2018-09-06T02:24:34.646Z,24.37
2018-09-06T02:32:45.878Z,24.10
2018-09-06T02:35:14.334Z,23.83
2018-09-06T02:40:37.647Z,24.27
2018-09-06T02:43:22.444Z,24.32
2018-09-06T02:46:13.739Z,25.27
2018-09-06T02:55:25.055Z,23.75
2018-09-06T03:06:47.706Z,26.30
2018-09-06T03:09:15.424Z,25.27
2018-09-06T03:11:50.500Z,25.85
2018-09-06T03:20:24.048Z,24.85
2018-09-06T03:22:56.219Z,25.45
2018-09-06T03:25:24.272Z,25.32
2018-09-06T03:30:54.760Z,24.10
2018-09-06T03:36:25.182Z,24.13
2018-09-06T03:38:52.765Z,24.23
2018-09-06T03:44:21.760Z,23.67
2018-09-06T03:49:59.854Z,24.87
2018-09-06T03:55:34.417Z,23.90
2018-09-06T03:58:02.276Z,23.83
2018-09-06T04:00:30.220Z,24.12
2018-09-06T04:02:58.418Z,23.70
2018-09-06T04:05:28.089Z,23.57
2018-09-06T04:10:53.617Z,23.32
2018-09-06T04:13:22.652Z,22.58
2018-09-06T04:15:53.233Z,22.73
2018-09-06T04:18:23.930Z,22.42
2018-09-06T04:20:55.516Z,22.67
2018-09-06T04:23:24.028Z,23.17
2018-09-06T04:25:51.657Z,22.83
2018-09-06T04:28:19.426Z,23.18
2018-09-06T04:30:47.069Z,23.40
2018-09-06T04:33:25.044Z,23.32
2018-09-06T04:35:52.680Z,24.02
2018-09-06T04:41:22.860Z,23.80
2018-09-06T04:43:50.504Z,23.63
2018-09-06T04:46:17.969Z,22.70
2018-09-06T04:48:50.270Z,22.77
2018-09-06T04:51:17.806Z,21.97
2018-09-06T04:53:45.986Z,21.68
2018-09-06T04:56:15.804Z,21.97
2018-09-06T04:58:43.768Z,21.50
2018-09-06T05:01:11.566Z,22.15
2018-09-06T05:03:39.471Z,22.02
2018-09-06T05:09:10.407Z,21.02
2018-09-06T05:11:40.451Z,20.72
2018-09-06T05:17:01.340Z,21.17
2018-09-06T05:19:34.566Z,20.80
2018-09-06T05:22:03.067Z,21.60
2018-09-06T05:24:30.846Z,20.60
2018-09-06T05:26:58.274Z,20.45
2018-09-06T05:29:34.219Z,20.65
2018-09-06T05:32:01.829Z,20.77
2018-09-06T05:34:29.417Z,20.90
2018-09-06T05:36:57.128Z,19.65
2018-09-06T05:39:36.268Z,19.35
2018-09-06T05:48:12.231Z,20.35
2018-09-06T05:53:32.783Z,20.35
2018-09-06T05:58:50.538Z,19.60
2018-09-06T06:04:21.027Z,19.48
2018-09-06T06:06:49.507Z,20.40
2018-09-06T06:09:17.212Z,20.30
2018-09-06T06:11:48.373Z,19.70
2018-09-06T06:14:16.087Z,20.40
2018-09-06T06:16:44.140Z,20.02
2018-09-06T06:19:28.010Z,20.10
2018-09-06T06:21:55.454Z,20.52
2018-09-06T06:24:22.974Z,19.07
2018-09-06T06:26:50.607Z,20.02
2018-09-06T06:29:18.293Z,20.43
2018-09-06T06:35:00.770Z,20.23
2018-09-06T06:37:28.576Z,20.88
2018-09-06T06:39:57.850Z,19.90
2018-09-06T06:51:35.039Z,20.15
2018-09-06T06:57:20.049Z,20.17
2018-09-06T07:00:06.035Z,19.48
2018-09-06T07:02:34.218Z,19.48
2018-09-06T07:07:54.070Z,18.35
2018-09-06T07:10:21.568Z,20.02
2018-09-06T07:12:49.112Z,20.17
2018-09-06T07:15:37.033Z,20.45
2018-09-06T07:24:07.861Z,20.70
2018-09-06T07:26:35.632Z,20.08
2018-09-06T07:35:09.072Z,20.90
2018-09-06T07:37:39.014Z,20.75
2018-09-06T07:40:06.705Z,21.12
2018-09-06T07:42:34.331Z,20.43
2018-09-06T07:45:02.393Z,20.62
2018-09-06T07:47:29.859Z,21.27
2018-09-06T07:49:57.352Z,20.60
2018-09-06T07:52:24.918Z,20.17
2018-09-06T07:54:52.250Z,20.45
2018-09-06T07:57:19.696Z,20.72
2018-09-06T07:59:47.228Z,20.85
2018-09-06T08:02:14.759Z,17.97
2018-09-06T08:04:42.183Z,17.17
2018-09-06T08:07:09.788Z,17.60
2018-09-06T08:09:37.309Z,17.73
2018-09-06T08:12:04.832Z,17.30
2018-09-06T08:14:32.238Z,16.52
2018-09-06T08:16:59.654Z,16.07
2018-09-06T08:19:27.080Z,15.90
2018-09-06T08:21:54.588Z,16.23
2018-09-06T08:24:22.219Z,14.95
2018-09-06T08:26:50.456Z,14.28
2018-09-06T08:29:17.994Z,14.65
2018-09-06T08:31:50.694Z,15.08
2018-09-06T08:34:19.595Z,14.75
2018-09-06T08:36:47.098Z,15.08
2018-09-06T08:39:15.089Z,15.45
2018-09-06T08:41:42.615Z,14.83
2018-09-06T08:44:15.444Z,14.60
2018-09-06T08:46:43.109Z,14.33
2018-09-06T08:49:10.587Z,14.17
2018-09-06T08:51:42.232Z,14.73
2018-09-06T08:54:09.829Z,13.83
2018-09-06T08:59:42.912Z,13.83
2018-09-06T09:02:11.383Z,13.90
2018-09-06T09:04:43.081Z,14.47
2018-09-06T09:07:16.817Z,14.50
2018-09-06T09:09:44.353Z,15.13
2018-09-06T09:12:11.994Z,14.60
2018-09-06T09:14:40.303Z,14.95
2018-09-06T09:17:19.111Z,14.70
2018-09-06T09:19:50.075Z,14.90
2018-09-06T09:22:53.207Z,14.75
2018-09-06T09:25:21.223Z,15.13
2018-09-06T09:27:48.768Z,14.70
2018-09-06T09:30:16.260Z,15.38
2018-09-06T09:32:50.450Z,14.73
2018-09-06T09:35:21.669Z,14.58
2018-09-06T09:41:03.887Z,14.68
2018-09-06T09:43:50.885Z,14.80
2018-09-06T09:48:46.249Z,14.58
2018-09-06T09:51:15.273Z,15.50
2018-09-06T09:53:53.431Z,15.30
2018-09-06T09:56:21.014Z,15.35
2018-09-06T09:58:48.615Z,16.00
2018-09-06T10:01:24.269Z,14.93
2018-09-06T10:03:57.690Z,14.70
2018-09-06T10:11:20.806Z,14.95
2018-09-06T10:19:44.158Z,14.65
2018-09-06T10:22:12.634Z,14.13
2018-09-06T10:30:32.835Z,14.43
2018-09-06T10:33:00.940Z,13.72
2018-09-06T10:35:29.205Z,14.10
2018-09-06T10:37:57.200Z,13.77
2018-09-06T10:40:24.904Z,14.05
2018-09-06T10:43:04.155Z,13.48
2018-09-06T10:45:32.105Z,13.40
2018-09-06T10:47:59.859Z,13.30
2018-09-06T10:50:27.705Z,13.80
2018-09-06T10:52:55.805Z,13.53
2018-09-06T10:55:23.412Z,12.50
2018-09-06T10:57:50.883Z,12.95
2018-09-06T11:00:18.589Z,14.18
2018-09-06T11:02:46.356Z,13.90
2018-09-06T11:07:55.664Z,13.83
2018-09-06T11:10:23.211Z,13.43
2018-09-06T11:12:51.513Z,13.25
2018-09-06T11:15:19.099Z,12.80
2018-09-06T11:17:48.341Z,13.93
2018-09-06T11:26:02.418Z,13.75
2018-09-06T11:28:30.446Z,12.63
2018-09-06T11:30:58.692Z,13.50
2018-09-06T11:33:49.716Z,13.50
2018-09-06T11:36:17.470Z,13.30
2018-09-06T11:38:45.088Z,12.88
2018-09-06T11:41:12.704Z,13.72
2018-09-06T11:43:40.801Z,13.13
2018-09-06T11:46:12.398Z,12.82
2018-09-06T11:58:05.530Z,13.05
2018-09-06T12:00:35.065Z,12.80
2018-09-06T12:09:04.541Z,12.43
2018-09-06T12:11:32.380Z,12.73
2018-09-06T12:17:04.084Z,12.30
2018-09-06T12:22:33.150Z,12.07
2018-09-06T12:25:00.987Z,12.25
2018-09-06T12:27:47.626Z,12.13
2018-09-06T12:33:19.689Z,11.45
2018-09-06T12:42:17.672Z,11.75
2018-09-06T12:57:32.810Z,11.50
2018-09-06T13:00:10.914Z,11.03
2018-09-06T13:08:47.884Z,10.72
2018-09-06T13:14:18.882Z,10.78
2018-09-06T13:19:50.432Z,9.88
2018-09-06T13:42:58.212Z,9.98
2018-09-06T13:45:46.816Z,9.98
2018-09-06T13:48:14.222Z,9.93
2018-09-06T13:50:41.745Z,10.65
2018-09-06T13:53:09.369Z,10.98
2018-09-06T13:55:36.880Z,11.10
2018-09-06T13:58:16.254Z,11.28
2018-09-06T14:00:45.723Z,11.33
2018-09-06T14:03:13.316Z,11.53
2018-09-06T14:05:47.474Z,11.50
2018-09-06T14:11:20.541Z,12.00
2018-09-06T14:14:08.850Z,12.50
2018-09-06T14:16:36.477Z,11.95
2018-09-06T14:22:07.024Z,13.03
2018-09-06T14:24:34.614Z,12.78
2018-09-06T14:27:17.786Z,12.80
2018-09-06T14:38:47.676Z,13.40
2018-09-06T14:41:16.125Z,13.43
2018-09-06T14:43:52.361Z,13.55
2018-09-06T14:46:19.857Z,13.48
2018-09-06T14:48:47.373Z,13.25
2018-09-06T14:51:14.838Z,13.15
2018-09-06T14:53:42.416Z,13.38
2018-09-06T14:59:03.932Z,12.65
2018-09-06T15:01:31.477Z,12.93
2018-09-06T15:04:00.422Z,12.73
2018-09-06T15:09:20.940Z,10.75
2018-09-06T15:14:58.904Z,10.30
2018-09-06T15:17:48.411Z,10.20
2018-09-06T15:23:13.255Z,10.38
2018-09-06T15:26:23.483Z,9.88
2018-09-06T15:28:51.425Z,10.40
2018-09-06T15:34:28.981Z,10.63
2018-09-06T15:37:16.485Z,10.75
2018-09-06T15:53:01.926Z,11.10
2018-09-06T16:04:37.652Z,11.97
2018-09-06T16:10:08.636Z,11.85
2018-09-06T16:12:37.595Z,10.98
2018-09-06T16:15:17.801Z,12.00
2018-09-06T16:17:46.136Z,11.57
2018-09-06T16:20:22.102Z,11.57
2018-09-06T16:23:09.370Z,13.38
2018-09-06T16:25:37.065Z,11.83
2018-09-06T16:34:10.656Z,12.82
2018-09-06T16:36:59.695Z,12.30
2018-09-06T16:39:27.380Z,12.05
2018-09-06T16:41:57.075Z,13.03
2018-09-06T16:44:28.886Z,13.10
2018-09-06T16:47:25.412Z,13.00
2018-09-06T16:50:13.008Z,12.78
2018-09-06T16:53:02.083Z,12.77
2018-09-06T16:56:02.747Z,11.75
2018-09-06T17:04:52.498Z,12.85
2018-09-06T17:16:22.060Z,13.60
2018-09-06T17:18:49.772Z,13.90
2018-09-06T17:21:36.453Z,13.05
2018-09-06T17:27:14.187Z,13.40
2018-09-06T17:33:59.743Z,13.65
2018-09-06T17:36:50.352Z,14.63
2018-09-06T17:39:31.319Z,14.63
2018-09-06T17:42:08.679Z,15.30
2018-09-06T17:44:36.132Z,14.45
2018-09-06T17:50:04.491Z,15.85
2018-09-06T17:52:31.934Z,16.27
2018-09-06T17:54:59.426Z,15.53
2018-09-06T17:57:26.878Z,15.45
2018-09-06T18:00:02.696Z,15.60
2018-09-06T18:02:41.737Z,15.85
2018-09-06T18:05:09.240Z,15.45
2018-09-06T18:07:36.833Z,14.65
2018-09-06T18:10:05.041Z,14.78
2018-09-06T18:12:34.612Z,16.10
2018-09-06T18:15:03.237Z,14.87
2018-09-06T18:17:30.838Z,14.00
2018-09-06T18:19:58.389Z,14.53
2018-09-06T18:22:25.889Z,14.93
2018-09-06T18:24:53.891Z,14.20
2018-09-06T18:27:21.343Z,14.40
2018-09-06T18:29:52.929Z,14.23
2018-09-06T18:32:20.453Z,14.20
2018-09-06T18:34:48.270Z,14.30
2018-09-06T18:37:15.765Z,13.95
2018-09-06T18:39:51.948Z,13.25
2018-09-06T18:42:19.492Z,13.75
2018-09-06T18:47:43.613Z,14.07
2018-09-06T18:50:21.030Z,13.53
2018-09-06T18:52:48.690Z,14.63
2018-09-06T18:55:16.304Z,14.70
2018-09-06T18:57:43.805Z,14.13
2018-09-06T19:00:11.295Z,14.70
2018-09-06T19:02:38.781Z,14.03
2018-09-06T19:05:06.352Z,14.50
2018-09-06T19:10:36.556Z,15.38
2018-09-06T19:13:22.004Z,14.58
2018-09-06T19:15:57.324Z,14.60
2018-09-06T19:21:32.620Z,14.25
2018-09-06T19:24:20.515Z,15.15
2018-09-06T19:27:23.418Z,14.43
2018-09-06T19:29:50.938Z,15.00
2018-09-06T19:32:18.489Z,13.85
2018-09-06T19:34:46.188Z,13.95
2018-09-06T19:37:13.955Z,13.60
2018-09-06T19:39:41.536Z,14.50
2018-09-06T19:42:09.044Z,14.63
2018-09-06T19:50:24.158Z,14.75
2018-09-06T19:52:51.684Z,15.68
2018-09-06T19:55:19.215Z,15.35
2018-09-06T19:57:56.892Z,16.27
2018-09-06T20:00:24.345Z,16.13
2018-09-06T20:02:54.077Z,16.15
2018-09-06T20:05:21.722Z,16.70
2018-09-06T20:07:49.258Z,16.02
2018-09-06T20:10:16.754Z,15.98
2018-09-06T20:13:07.343Z,15.98
2018-09-06T20:18:40.567Z,15.43
2018-09-06T20:21:08.157Z,14.70
2018-09-06T20:26:51.660Z,15.18
2018-09-06T20:29:21.408Z,14.03
2018-09-06T20:37:39.827Z,14.53
2018-09-06T20:40:29.795Z,14.83
2018-09-06T20:42:57.560Z,14.73
2018-09-06T20:51:27.277Z,15.17
2018-09-06T20:53:56.628Z,14.35
2018-09-06T21:05:15.993Z,14.90
2018-09-06T21:10:46.075Z,15.40
2018-09-06T21:13:32.239Z,14.90
2018-09-06T21:16:09.658Z,15.88
2018-09-06T21:18:37.182Z,15.10
2018-09-06T21:21:05.589Z,15.53
2018-09-06T21:23:33.200Z,16.65
2018-09-06T21:26:00.694Z,17.35
2018-09-06T21:28:50.539Z,17.05
2018-09-06T21:31:30.922Z,17.05
2018-09-06T21:33:58.634Z,16.70
2018-09-06T21:36:26.186Z,17.35
2018-09-06T21:38:53.669Z,16.07
2018-09-06T21:41:21.182Z,16.80
2018-09-06T21:44:10.430Z,15.98
2018-09-06T21:46:38.364Z,16.17
2018-09-06T21:49:06.100Z,15.45
2018-09-06T21:51:33.611Z,15.00
2018-09-06T21:54:02.541Z,14.45
2018-09-06T21:56:32.999Z,14.40
2018-09-06T21:59:10.487Z,13.37
2018-09-06T22:01:38.221Z,14.33
2018-09-06T22:04:06.724Z,13.72
2018-09-06T22:06:41.798Z,13.95
2018-09-06T22:09:18.472Z,14.83
2018-09-06T22:11:45.910Z,16.00
2018-09-06T22:14:15.235Z,14.95
2018-09-06T22:16:49.865Z,15.13
2018-09-06T22:19:17.360Z,14.63
2018-09-06T22:21:44.850Z,15.38
2018-09-06T22:24:20.307Z,15.95
2018-09-06T22:26:49.171Z,15.32
2018-09-06T22:29:16.869Z,16.45
2018-09-06T22:31:44.491Z,15.53
2018-09-06T22:34:12.127Z,15.23
2018-09-06T22:36:39.708Z,15.40
2018-09-06T22:48:16.104Z,15.88
2018-09-06T22:50:53.685Z,16.10
2018-09-06T22:53:21.947Z,15.88
2018-09-06T22:55:56.625Z,15.88
2018-09-06T22:58:32.685Z,16.40
2018-09-06T23:01:00.342Z,16.60
2018-09-06T23:03:49.522Z,15.95
2018-09-06T23:06:17.313Z,16.75
2018-09-06T23:08:45.740Z,16.90
2018-09-06T23:11:13.796Z,16.70
2018-09-06T23:13:44.545Z,16.52
2018-09-06T23:16:12.755Z,16.42
2018-09-06T23:18:40.546Z,16.80
2018-09-06T23:21:27.948Z,16.77
2018-09-06T23:23:55.465Z,16.20
2018-09-06T23:26:22.990Z,17.30
2018-09-06T23:28:50.487Z,17.27
2018-09-06T23:31:18.287Z,17.32
2018-09-06T23:33:48.035Z,17.05
2018-09-06T23:36:15.692Z,16.60
2018-09-06T23:38:43.472Z,16.02
2018-09-06T23:41:11.371Z,15.65
2018-09-06T23:43:39.581Z,15.78
2018-09-06T23:46:07.483Z,15.78
2018-09-06T23:48:36.549Z,16.40
2018-09-06T23:51:04.294Z,16.20
2018-09-06T23:53:31.893Z,16.17
2018-09-06T23:56:01.448Z,15.85
